Time;durP1;ratioP1;P1;durP2;ratioP2;P2;SDS_P1;SDS_P2;PMS_P1;PMS_P2;Temp;Humidity;BMP_temperature;BMP_pressure;BME280_temperature;BME280_humidity;BME280_pressure;Samples;Min_cycle;Max_cycle;Signal;HPM_P1;HPM_P2
2022/10/16 00:02:18;;;;;;;;;;;;;;;;;;5012539;28;19925;-77
2022/10/16 00:04:45;;;;;;;;;;;;;;;;;;5013109;28;20016;-78
2022/10/16 00:07:11;;;;;;;;;;;;;;;;;;5012264;28;20393;-78
2022/10/16 00:09:37;;;;;;;;;;;;;;;;;;5012783;28;19926;-78
2022/10/16 00:12:06;;;;;;;;;;;;;;;;;;5012747;28;20008;-78
2022/10/16 00:14:33;;;;;;;;;;;;;;;;;;5012667;28;19925;-77
2022/10/16 00:17:00;;;;;;;;;;;;;;;;;;5012223;28;20020;-78
2022/10/16 00:19:27;;;;;;;;;;;;;;;;;;5012820;28;20032;-78
2022/10/16 00:21:53;;;;;;;;;;;;;;;;;;5012905;28;20313;-77
2022/10/16 00:24:20;;;;;;;;;;;;;;;;;;5012685;28;20381;-77
2022/10/16 00:26:46;;;;;;;;;;;;;;;;;;5012276;28;20017;-77
2022/10/16 00:29:12;;;;;;;;;;;;;;;;;;5012799;28;19932;-78
2022/10/16 00:31:39;;;;;;;;;;;;;;;;;;5012750;28;20016;-78
2022/10/16 00:34:07;;;;;;;;;;;;;;;;;;5012587;28;19929;-78
2022/10/16 00:36:33;;;;;;;;;;;;;;;;;;5012470;28;19972;-77
2022/10/16 00:39:00;;;;;;;;;;;;;;;;;;5012473;28;20005;-78
2022/10/16 00:41:27;;;;;;;;;;;;;;;;;;5014785;28;19929;-78
2022/10/16 00:43:54;;;;;;;;;;;;;;;;;;5019021;28;20008;-77
2022/10/16 00:46:22;;;;;;;;;;;;;;;;;;5019100;28;19968;-78
2022/10/16 00:48:51;;;;;;;;;;;;;;;;;;5018686;28;20477;-79
2022/10/16 00:51:20;;;;;;;;;;;;;;;;;;5019124;28;19936;-78
2022/10/16 00:53:47;;;;;;;;;;;;;;;;;;5019071;28;19949;-78
2022/10/16 00:56:13;;;;;;;;;;;;;;;;;;5018811;28;20024;-78
2022/10/16 00:58:40;;;;;;;;;;;;;;;;;;5018783;28;20428;-78
2022/10/16 01:01:06;;;;;;;;;;;;;;;;;;5019044;28;19925;-77
2022/10/16 01:03:33;;;;;;;;;;;;;;;;;;5018940;28;20412;-77
2022/10/16 01:06:10;;;;;;;;;;;;;;;;;;5018935;28;20024;-77
2022/10/16 01:08:44;;;;;;;;;;;;;;;;;;5018926;28;19926;-78
2022/10/16 01:11:13;;;;;;;;;;;;;;;;;;5019065;28;20303;-78
2022/10/16 01:13:41;;;;;;;;;;;;;;;;;;5018971;28;20016;-79
2022/10/16 01:16:12;;;;;;;;;;;;;;;;;;5019647;28;20004;-77
2022/10/16 01:18:42;;;;;;;;;;;;;;;;;;5029292;28;19957;-77
2022/10/16 01:21:10;;;;;;;;;;;;;;;;;;5023765;28;19956;-77
2022/10/16 01:23:43;;;;;;;;;;;;;;;;;;5022085;28;20012;-78
2022/10/16 01:26:21;;;;;;;;;;;;;;;;;;5020313;28;20016;-77
2022/10/16 01:28:52;;;;;;;;;;;;;;;;;;5018767;28;20348;-77
2022/10/16 01:31:19;;;;;;;;;;;;;;;;;;5018773;28;19929;-77
2022/10/16 01:33:47;;;;;;;;;;;;;;;;;;5018560;28;20019;-78
2022/10/16 01:36:16;;;;;;;;;;;;;;;;;;5018535;28;20020;-77
2022/10/16 01:38:44;;;;;;;;;;;;;;;;;;5018739;28;19925;-77
2022/10/16 01:41:11;;;;;;;;;;;;;;;;;;5018570;28;19925;-77
2022/10/16 01:43:41;;;;;;;;;;;;;;;;;;5018291;28;19932;-78
2022/10/16 01:46:09;;;;;;;;;;;;;;;;;;5018444;28;19948;-77
2022/10/16 01:48:36;;;;;;;;;;;;;;;;;;5018500;28;19926;-77
2022/10/16 01:51:05;;;;;;;;;;;;;;;;;;5018775;28;20022;-77
2022/10/16 01:53:32;;;;;;;;;;;;;;;;;;5015270;28;19948;-78
2022/10/16 01:55:59;;;;;;;;;;;;;;;;;;5014978;28;19980;-77
2022/10/16 01:58:26;;;;;;;;;;;;;;;;;;5015064;28;20016;-77
2022/10/16 02:00:53;;;;;;;;;;;;;;;;;;5015464;28;19971;-77
2022/10/16 02:03:21;;;;;;;;;;;;;;;;;;5026412;28;19931;-78
2022/10/16 02:05:49;;;;;;;;;;;;;;;;;;5034869;28;19976;-77
2022/10/16 02:08:16;;;;;;;;;;;;;;;;;;5034569;28;20008;-78
2022/10/16 02:10:42;;;;;;;;;;;;;;;;;;5034783;28;19925;-77
2022/10/16 02:13:11;;;;;;;;;;;;;;;;;;5034805;28;20016;-78
2022/10/16 02:15:37;;;;;;;;;;;;;;;;;;5034650;28;20050;-78
2022/10/16 02:18:05;;;;;;;;;;;;;;;;;;5034673;28;20011;-78
2022/10/16 02:20:35;;;;;;;;;;;;;;;;;;5034736;28;19964;-78
2022/10/16 02:23:01;;;;;;;;;;;;;;;;;;5034784;28;20015;-78
2022/10/16 02:25:30;;;;;;;;;;;;;;;;;;5034308;28;19929;-77
2022/10/16 02:27:59;;;;;;;;;;;;;;;;;;5034199;28;20367;-78
2022/10/16 02:30:28;;;;;;;;;;;;;;;;;;5034502;28;20016;-78
2022/10/16 02:32:55;;;;;;;;;;;;;;;;;;5034310;28;19972;-78
2022/10/16 02:35:22;;;;;;;;;;;;;;;;;;5034150;28;19983;-78
2022/10/16 02:37:51;;;;;;;;;;;;;;;;;;5034039;28;20336;-78
2022/10/16 02:40:17;;;;;;;;;;;;;;;;;;5034636;28;20004;-78
2022/10/16 02:42:44;;;;;;;;;;;;;;;;;;5034031;28;19932;-78
2022/10/16 02:45:11;;;;;;;;;;;;;;;;;;5034060;28;20012;-78
2022/10/16 02:47:38;;;;;;;;;;;;;;;;;;5034001;28;19929;-78
2022/10/16 02:50:05;;;;;;;;;;;;;;;;;;5033942;28;19940;-78
2022/10/16 02:52:31;;;;;;;;;;;;;;;;;;5033967;28;20036;-78
2022/10/16 02:54:59;;;;;;;;;;;;;;;;;;5033668;28;20023;-78
2022/10/16 02:57:25;;;;;;;;;;;;;;;;;;5033396;28;20391;-78
2022/10/16 02:59:52;;;;;;;;;;;;;;;;;;5034094;28;19931;-78
2022/10/16 03:02:18;;;;;;;;;;;;;;;;;;5031082;28;20008;-77
2022/10/16 03:04:45;;;;;;;;;;;;;;;;;;5013741;28;20012;-78
2022/10/16 03:07:11;;;;;;;;;;;;;;;;;;5013904;28;19932;-78
2022/10/16 03:09:37;;;;;;;;;;;;;;;;;;5013741;28;19976;-78
2022/10/16 03:12:06;;;;;;;;;;;;;;;;;;5013946;28;19976;-78
2022/10/16 03:14:32;;;;;;;;;;;;;;;;;;5013836;28;19925;-78
2022/10/16 03:16:58;;;;;;;;;;;;;;;;;;5013554;28;19925;-78
2022/10/16 03:19:25;;;;;;;;;;;;;;;;;;5013563;28;20021;-78
2022/10/16 03:21:51;;;;;;;;;;;;;;;;;;5013831;28;20021;-78
2022/10/16 03:24:18;;;;;;;;;;;;;;;;;;5013743;28;19934;-78
2022/10/16 03:26:44;;;;;;;;;;;;;;;;;;5013168;28;20512;-78
2022/10/16 03:29:12;;;;;;;;;;;;;;;;;;5013916;28;19932;-77
2022/10/16 03:31:39;;;;;;;;;;;;;;;;;;5013769;28;19932;-78
2022/10/16 03:34:05;;;;;;;;;;;;;;;;;;5013587;28;20061;-78
2022/10/16 03:36:32;;;;;;;;;;;;;;;;;;5013087;28;19932;-78
2022/10/16 03:38:58;;;;;;;;;;;;;;;;;;5013308;28;20016;-78
2022/10/16 03:41:25;;;;;;;;;;;;;;;;;;5013592;28;20009;-76
2022/10/16 03:43:51;;;;;;;;;;;;;;;;;;5013455;28;19984;-78
2022/10/16 03:46:19;;;;;;;;;;;;;;;;;;5013287;28;20012;-77
2022/10/16 03:48:45;;;;;;;;;;;;;;;;;;5013301;28;20351;-78
2022/10/16 03:51:12;;;;;;;;;;;;;;;;;;5013017;28;20360;-77
2022/10/16 03:53:38;;;;;;;;;;;;;;;;;;5013207;28;20017;-78
2022/10/16 03:56:05;;;;;;;;;;;;;;;;;;5012844;28;20015;-78
2022/10/16 03:58:31;;;;;;;;;;;;;;;;;;5013009;28;19925;-78
2022/10/16 04:00:58;;;;;;;;;;;;;;;;;;5013105;28;19929;-77
2022/10/16 04:03:26;;;;;;;;;;;;;;;;;;5025194;28;19925;-79
2022/10/16 04:05:52;;;;;;;;;;;;;;;;;;5032497;28;19968;-77
2022/10/16 04:08:18;;;;;;;;;;;;;;;;;;5035136;28;20357;-78
2022/10/16 04:10:45;;;;;;;;;;;;;;;;;;5037327;28;19925;-78
2022/10/16 04:13:12;;;;;;;;;;;;;;;;;;5036810;28;20016;-77
2022/10/16 04:15:38;;;;;;;;;;;;;;;;;;5036400;28;20024;-77
2022/10/16 04:18:05;;;;;;;;;;;;;;;;;;5032020;28;20011;-77
2022/10/16 04:20:33;;;;;;;;;;;;;;;;;;5032345;28;20019;-77
2022/10/16 04:23:00;;;;;;;;;;;;;;;;;;5032570;28;19972;-78
2022/10/16 04:25:26;;;;;;;;;;;;;;;;;;5032151;28;19932;-78
2022/10/16 04:27:53;;;;;;;;;;;;;;;;;;5032254;28;20040;-78
2022/10/16 04:30:20;;;;;;;;;;;;;;;;;;5032390;28;20012;-78
2022/10/16 04:32:48;;;;;;;;;;;;;;;;;;5032531;28;19931;-78
2022/10/16 04:35:15;;;;;;;;;;;;;;;;;;5032116;28;20368;-77
2022/10/16 04:37:43;;;;;;;;;;;;;;;;;;5031944;28;19925;-78
2022/10/16 04:40:09;;;;;;;;;;;;;;;;;;5032319;28;19983;-78
2022/10/16 04:42:36;;;;;;;;;;;;;;;;;;5032271;28;20369;-78
2022/10/16 04:45:03;;;;;;;;;;;;;;;;;;5032102;28;20024;-78
2022/10/16 04:47:29;;;;;;;;;;;;;;;;;;5031731;28;19929;-78
2022/10/16 04:49:56;;;;;;;;;;;;;;;;;;5032076;28;20016;-76
2022/10/16 04:52:24;;;;;;;;;;;;;;;;;;5032234;28;19976;-78
2022/10/16 04:54:52;;;;;;;;;;;;;;;;;;5032049;28;19971;-78
2022/10/16 04:57:18;;;;;;;;;;;;;;;;;;5031689;28;19929;-78
2022/10/16 04:59:45;;;;;;;;;;;;;;;;;;5031932;28;19968;-78
2022/10/16 05:02:11;;;;;;;;;;;;;;;;;;5029944;28;20375;-78
2022/10/16 05:04:38;;;;;;;;;;;;;;;;;;5012467;28;19981;-78
2022/10/16 05:07:04;;;;;;;;;;;;;;;;;;5011739;28;20392;-78
2022/10/16 05:09:30;;;;;;;;;;;;;;;;;;5011787;28;20491;-78
2022/10/16 05:11:58;;;;;;;;;;;;;;;;;;5012091;28;19925;-78
2022/10/16 05:14:25;;;;;;;;;;;;;;;;;;5012590;28;19926;-76
2022/10/16 05:16:51;;;;;;;;;;;;;;;;;;5011546;28;20318;-78
2022/10/16 05:19:18;;;;;;;;;;;;;;;;;;5012255;28;19952;-78
2022/10/16 05:21:44;;;;;;;;;;;;;;;;;;5012284;28;19975;-78
2022/10/16 05:24:11;;;;;;;;;;;;;;;;;;5012092;28;20384;-77
2022/10/16 05:26:37;;;;;;;;;;;;;;;;;;5011839;28;19961;-77
2022/10/16 05:29:05;;;;;;;;;;;;;;;;;;5015227;28;20008;-78
2022/10/16 05:31:32;;;;;;;;;;;;;;;;;;5013036;28;21459;-77
2022/10/16 05:33:59;;;;;;;;;;;;;;;;;;5015747;28;20020;-78
2022/10/16 05:36:25;;;;;;;;;;;;;;;;;;5015427;28;19965;-78
2022/10/16 05:38:52;;;;;;;;;;;;;;;;;;5015713;28;19926;-75
2022/10/16 05:41:21;;;;;;;;;;;;;;;;;;5017107;28;19929;-77
2022/10/16 05:43:47;;;;;;;;;;;;;;;;;;5016994;28;19925;-77
2022/10/16 05:46:15;;;;;;;;;;;;;;;;;;5016825;28;20189;-78
2022/10/16 05:48:42;;;;;;;;;;;;;;;;;;5015355;28;20384;-77
2022/10/16 05:51:10;;;;;;;;;;;;;;;;;;5016604;28;19965;-77
2022/10/16 05:53:37;;;;;;;;;;;;;;;;;;5017156;28;19931;-77
2022/10/16 05:56:04;;;;;;;;;;;;;;;;;;5016935;28;20016;-77
2022/10/16 05:58:32;;;;;;;;;;;;;;;;;;5017066;28;20446;-76
2022/10/16 06:00:59;;;;;;;;;;;;;;;;;;5017370;28;20397;-77
2022/10/16 06:03:27;;;;;;;;;;;;;;;;;;5029186;28;20000;-77
2022/10/16 06:05:53;;;;;;;;;;;;;;;;;;5036390;28;19925;-76
2022/10/16 06:08:21;;;;;;;;;;;;;;;;;;5036638;28;19965;-78
2022/10/16 06:10:49;;;;;;;;;;;;;;;;;;5036458;28;19971;-77
2022/10/16 06:13:16;;;;;;;;;;;;;;;;;;5037379;28;20012;-76
2022/10/16 06:15:43;;;;;;;;;;;;;;;;;;5036693;28;19968;-77
2022/10/16 06:18:09;;;;;;;;;;;;;;;;;;5036930;28;19984;-77
2022/10/16 06:20:38;;;;;;;;;;;;;;;;;;5036481;28;20377;-77
2022/10/16 06:23:04;;;;;;;;;;;;;;;;;;5036364;28;19925;-77
2022/10/16 06:25:31;;;;;;;;;;;;;;;;;;5035513;28;19926;-78
2022/10/16 06:27:57;;;;;;;;;;;;;;;;;;5034221;28;20008;-77
2022/10/16 06:30:24;;;;;;;;;;;;;;;;;;5034348;28;20448;-78
2022/10/16 06:32:50;;;;;;;;;;;;;;;;;;5034423;28;20021;-77
2022/10/16 06:35:17;;;;;;;;;;;;;;;;;;5035672;28;20024;-77
2022/10/16 06:37:45;;;;;;;;;;;;;;;;;;5035870;28;20012;-77
2022/10/16 06:40:11;;;;;;;;;;;;;;;;;;5034203;28;20015;-77
2022/10/16 06:42:38;;;;;;;;;;;;;;;;;;5034471;28;19925;-77
2022/10/16 06:45:04;;;;;;;;;;;;;;;;;;5035247;28;20012;-77
2022/10/16 06:47:31;;;;;;;;;;;;;;;;;;5035452;28;19973;-77
2022/10/16 06:49:57;;;;;;;;;;;;;;;;;;5035218;28;19964;-78
2022/10/16 06:52:24;;;;;;;;;;;;;;;;;;5035762;28;19961;-77
2022/10/16 06:54:51;;;;;;;;;;;;;;;;;;5035562;28;19971;-77
2022/10/16 06:57:18;;;;;;;;;;;;;;;;;;5033586;28;20024;-78
2022/10/16 06:59:45;;;;;;;;;;;;;;;;;;5034492;28;19964;-77
2022/10/16 07:02:11;;;;;;;;;;;;;;;;;;5034437;28;19964;-76
2022/10/16 07:04:37;;;;;;;;;;;;;;;;;;5015921;28;19965;-77
2022/10/16 07:07:04;;;;;;;;;;;;;;;;;;5015308;28;19976;-77
2022/10/16 07:09:30;;;;;;;;;;;;;;;;;;5015181;28;19979;-77
2022/10/16 07:11:58;;;;;;;;;;;;;;;;;;5015236;28;20016;-76
2022/10/16 07:14:25;;;;;;;;;;;;;;;;;;5014431;28;19926;-76
2022/10/16 07:16:51;;;;;;;;;;;;;;;;;;5013671;28;20017;-76
2022/10/16 07:19:18;;;;;;;;;;;;;;;;;;5013954;28;20016;-77
2022/10/16 07:21:45;;;;;;;;;;;;;;;;;;5013721;28;19933;-77
2022/10/16 07:24:13;;;;;;;;;;;;;;;;;;5013852;28;19926;-77
2022/10/16 07:26:39;;;;;;;;;;;;;;;;;;5013330;28;19925;-76
2022/10/16 07:29:08;;;;;;;;;;;;;;;;;;5013426;28;19925;-77
2022/10/16 07:31:34;;;;;;;;;;;;;;;;;;5013632;28;19972;-76
2022/10/16 07:34:01;;;;;;;;;;;;;;;;;;5013571;28;19930;-77
2022/10/16 07:36:28;;;;;;;;;;;;;;;;;;5013222;28;19925;-77
2022/10/16 07:38:54;;;;;;;;;;;;;;;;;;5013368;28;19925;-76
2022/10/16 07:41:21;;;;;;;;;;;;;;;;;;5013383;28;19933;-77
2022/10/16 07:43:48;;;;;;;;;;;;;;;;;;5013200;28;20020;-76
2022/10/16 07:46:17;;;;;;;;;;;;;;;;;;5012932;28;19932;-76
2022/10/16 07:48:46;;;;;;;;;;;;;;;;;;5013009;28;19932;-77
2022/10/16 07:51:16;;;;;;;;;;;;;;;;;;5012235;28;20293;-77
2022/10/16 07:53:42;;;;;;;;;;;;;;;;;;5013093;28;20016;-77
2022/10/16 07:56:09;;;;;;;;;;;;;;;;;;5012904;28;19926;-77
2022/10/16 07:58:37;;;;;;;;;;;;;;;;;;5012309;28;20616;-78
2022/10/16 08:01:04;;;;;;;;;;;;;;;;;;5012926;28;20296;-78
2022/10/16 08:03:32;;;;;;;;;;;;;;;;;;5025754;28;20371;-78
2022/10/16 08:06:00;;;;;;;;;;;;;;;;;;5032515;28;19980;-76
2022/10/16 08:08:26;;;;;;;;;;;;;;;;;;5040802;28;19960;-81
2022/10/16 08:10:53;;;;;;;;;;;;;;;;;;5039408;28;19925;-78
2022/10/16 08:13:19;;;;;;;;;;;;;;;;;;5032934;28;20388;-76
2022/10/16 08:15:46;;;;;;;;;;;;;;;;;;5033438;28;19972;-78
2022/10/16 08:18:13;;;;;;;;;;;;;;;;;;5034219;28;19932;-78
2022/10/16 08:20:42;;;;;;;;;;;;;;;;;;5035125;28;20024;-81
2022/10/16 08:23:09;;;;;;;;;;;;;;;;;;5034774;28;20369;-77
2022/10/16 08:25:36;;;;;;;;;;;;;;;;;;5032543;28;19979;-77
2022/10/16 08:28:04;;;;;;;;;;;;;;;;;;5031796;28;20424;-77
2022/10/16 08:30:30;;;;;;;;;;;;;;;;;;5032480;28;19983;-77
2022/10/16 08:32:57;;;;;;;;;;;;;;;;;;5032509;28;19925;-77
2022/10/16 08:35:24;;;;;;;;;;;;;;;;;;5032353;28;19925;-77
2022/10/16 08:37:52;;;;;;;;;;;;;;;;;;5032059;28;19925;-78
2022/10/16 08:40:20;;;;;;;;;;;;;;;;;;5032332;28;19929;-78
2022/10/16 08:42:58;;;;;;;;;;;;;;;;;;5032510;28;19924;-78
2022/10/16 08:45:34;;;;;;;;;;;;;;;;;;5032543;28;20012;-77
2022/10/16 08:48:09;;;;;;;;;;;;;;;;;;5031828;28;20016;-78
2022/10/16 08:50:38;;;;;;;;;;;;;;;;;;5032058;28;19925;-77
2022/10/16 08:53:06;;;;;;;;;;;;;;;;;;5030056;28;19925;-77
2022/10/16 08:55:37;;;;;;;;;;;;;;;;;;5015068;28;19975;-77
2022/10/16 08:58:10;;;;;;;;;;;;;;;;;;5012038;28;20028;-78
2022/10/16 09:00:36;;;;;;;;;;;;;;;;;;5012643;28;20012;-78
2022/10/16 09:03:07;;;;;;;;;;;;;;;;;;5023043;28;19925;-78
2022/10/16 09:05:44;;;;;;;;;;;;;;;;;;5036336;28;20016;-78
2022/10/16 09:08:18;;;;;;;;;;;;;;;;;;5037752;28;20396;-77
2022/10/16 09:10:51;;;;;;;;;;;;;;;;;;5036046;28;20027;-78
2022/10/16 09:13:21;;;;;;;;;;;;;;;;;;5036599;28;20015;-76
2022/10/16 09:15:51;;;;;;;;;;;;;;;;;;5036134;28;19957;-77
2022/10/16 09:18:21;;;;;;;;;;;;;;;;;;5035659;28;19968;-77
2022/10/16 09:20:51;;;;;;;;;;;;;;;;;;5035638;28;19929;-77
2022/10/16 09:23:20;;;;;;;;;;;;;;;;;;5035674;28;20028;-78
2022/10/16 09:25:48;;;;;;;;;;;;;;;;;;5035539;28;20024;-77
2022/10/16 09:28:16;;;;;;;;;;;;;;;;;;5035290;28;20248;-76
2022/10/16 09:30:42;;;;;;;;;;;;;;;;;;5035420;28;19925;-76
2022/10/16 09:33:10;;;;;;;;;;;;;;;;;;5035374;28;20015;-75
2022/10/16 09:35:38;;;;;;;;;;;;;;;;;;5037479;28;20075;-77
2022/10/16 09:38:05;;;;;;;;;;;;;;;;;;5034893;28;20391;-76
2022/10/16 09:40:35;;;;;;;;;;;;;;;;;;5035334;28;19925;-77
2022/10/16 09:43:13;;;;;;;;;;;;;;;;;;5035346;28;19925;-77
2022/10/16 09:45:40;;;;;;;;;;;;;;;;;;5036390;28;19991;-77
2022/10/16 09:48:12;;;;;;;;;;;;;;;;;;5036034;28;20351;-77
2022/10/16 09:50:38;;;;;;;;;;;;;;;;;;5036365;28;19925;-77
2022/10/16 09:53:06;;;;;;;;;;;;;;;;;;5036325;28;19971;-77
2022/10/16 09:55:33;;;;;;;;;;;;;;;;;;5035800;28;19961;-77
2022/10/16 09:58:00;;;;;;;;;;;;;;;;;;5034739;28;20020;-76
2022/10/16 10:00:26;;;;;;;;;;;;;;;;;;5035038;28;19975;-76
2022/10/16 10:02:54;;;;;;;;;;;;;;;;;;5035292;28;19983;-77
2022/10/16 10:05:22;;;;;;;;;;;;;;;;;;5036220;28;20490;-77
2022/10/16 10:07:54;;;;;;;;;;;;;;;;;;5035663;28;20024;-77
2022/10/16 10:10:22;;;;;;;;;;;;;;;;;;5038759;28;20368;-79
2022/10/16 10:12:50;;;;;;;;;;;;;;;;;;5037722;28;20020;-77
2022/10/16 10:15:21;;;;;;;;;;;;;;;;;;5032793;28;20024;-77
2022/10/16 10:17:48;;;;;;;;;;;;;;;;;;5026558;28;19925;-78
2022/10/16 10:20:22;;;;;;;;;;;;;;;;;;5014311;28;19981;-78
2022/10/16 10:22:48;;;;;;;;;;;;;;;;;;5010530;28;19926;-75
2022/10/16 10:25:19;;;;;;;;;;;;;;;;;;5016404;28;19929;-76
2022/10/16 10:27:53;;;;;;;;;;;;;;;;;;5016137;28;19930;-78
2022/10/16 10:30:21;;;;;;;;;;;;;;;;;;5015513;28;20368;-77
2022/10/16 10:32:51;;;;;;;;;;;;;;;;;;5014976;28;19925;-76
2022/10/16 10:35:23;;;;;;;;;;;;;;;;;;5014822;28;19926;-76
2022/10/16 10:37:59;;;;;;;;;;;;;;;;;;5014716;28;19925;-77
2022/10/16 10:40:30;;;;;;;;;;;;;;;;;;5015071;28;19925;-76
2022/10/16 10:43:02;;;;;;;;;;;;;;;;;;5014722;28;20467;-77
2022/10/16 10:45:29;;;;;;;;;;;;;;;;;;5015150;28;19926;-76
2022/10/16 10:48:13;;;;;;;;;;;;;;;;;;5014414;28;19964;-77
2022/10/16 10:50:42;;;;;;;;;;;;;;;;;;5014513;28;19926;-77
2022/10/16 10:53:12;;;;;;;;;;;;;;;;;;5014792;28;20000;-76
2022/10/16 10:55:41;;;;;;;;;;;;;;;;;;5014110;28;19925;-77
2022/10/16 10:58:22;;;;;;;;;;;;;;;;;;5015097;28;20012;-76
2022/10/16 11:00:52;;;;;;;;;;;;;;;;;;5012219;28;20019;-77
2022/10/16 11:03:25;;;;;;;;;;;;;;;;;;5027314;28;20376;-76
2022/10/16 11:05:53;;;;;;;;;;;;;;;;;;5034556;28;19925;-76
2022/10/16 11:08:21;;;;;;;;;;;;;;;;;;5033938;28;20424;-77
2022/10/16 11:10:51;;;;;;;;;;;;;;;;;;5033570;28;19932;-77
2022/10/16 11:13:22;;;;;;;;;;;;;;;;;;5033451;28;20368;-77
2022/10/16 11:15:52;;;;;;;;;;;;;;;;;;5035121;28;19976;-77
2022/10/16 11:18:22;;;;;;;;;;;;;;;;;;5034347;28;19936;-76
2022/10/16 11:20:51;;;;;;;;;;;;;;;;;;5034378;28;19925;-76
2022/10/16 11:23:22;;;;;;;;;;;;;;;;;;5035003;28;19979;-77
2022/10/16 11:25:49;;;;;;;;;;;;;;;;;;5037465;28;19925;-76
2022/10/16 11:28:17;;;;;;;;;;;;;;;;;;5034503;28;19925;-77
2022/10/16 11:30:47;;;;;;;;;;;;;;;;;;5035025;28;19975;-77
2022/10/16 11:33:31;;;;;;;;;;;;;;;;;;5034802;28;20012;-77
2022/10/16 11:36:01;;;;;;;;;;;;;;;;;;5034571;28;20407;-77
2022/10/16 11:38:30;;;;;;;;;;;;;;;;;;5033736;28;19928;-77
2022/10/16 11:41:00;;;;;;;;;;;;;;;;;;5032964;28;19932;-77
2022/10/16 11:43:29;;;;;;;;;;;;;;;;;;5033352;28;20016;-77
2022/10/16 11:45:57;;;;;;;;;;;;;;;;;;5022946;28;20377;-76
2022/10/16 11:48:27;;;;;;;;;;;;;;;;;;5027938;28;20016;-77
2022/10/16 11:50:57;;;;;;;;;;;;;;;;;;5032872;28;20435;-77
2022/10/16 11:53:30;;;;;;;;;;;;;;;;;;5034690;28;19979;-77
2022/10/16 11:55:56;;;;;;;;;;;;;;;;;;5034582;28;20013;-76
2022/10/16 11:58:26;;;;;;;;;;;;;;;;;;5033643;28;19963;-77
2022/10/16 12:00:57;;;;;;;;;;;;;;;;;;5033770;28;19925;-78
2022/10/16 12:03:26;;;;;;;;;;;;;;;;;;5021749;28;20024;-78
2022/10/16 12:06:06;;;;;;;;;;;;;;;;;;5014403;28;19968;-78
2022/10/16 12:08:34;;;;;;;;;;;;;;;;;;5014156;28;19926;-78
2022/10/16 12:11:07;;;;;;;;;;;;;;;;;;5014636;28;19925;-77
2022/10/16 12:13:35;;;;;;;;;;;;;;;;;;5014016;28;20016;-77
2022/10/16 12:16:05;;;;;;;;;;;;;;;;;;5014207;28;19973;-77
2022/10/16 12:18:32;;;;;;;;;;;;;;;;;;5015496;28;20023;-78
2022/10/16 12:21:04;;;;;;;;;;;;;;;;;;5016129;28;19929;-78
2022/10/16 12:23:32;;;;;;;;;;;;;;;;;;5015414;28;20136;-77
2022/10/16 12:26:00;;;;;;;;;;;;;;;;;;5015470;28;19926;-78
2022/10/16 12:28:28;;;;;;;;;;;;;;;;;;5015060;28;20016;-77
2022/10/16 12:30:55;;;;;;;;;;;;;;;;;;5014441;28;19936;-77
2022/10/16 12:33:23;;;;;;;;;;;;;;;;;;5012785;28;19972;-77
2022/10/16 12:35:50;;;;;;;;;;;;;;;;;;5012585;28;19969;-77
2022/10/16 12:38:18;;;;;;;;;;;;;;;;;;5013256;28;19925;-78
2022/10/16 12:40:47;;;;;;;;;;;;;;;;;;5015473;28;19996;-77
2022/10/16 12:43:25;;;;;;;;;;;;;;;;;;5015100;28;19952;-78
2022/10/16 12:45:59;;;;;;;;;;;;;;;;;;5013663;28;20016;-76
2022/10/16 12:48:26;;;;;;;;;;;;;;;;;;5014353;28;19932;-77
2022/10/16 12:50:52;;;;;;;;;;;;;;;;;;5021075;28;19925;-77
2022/10/16 12:53:20;;;;;;;;;;;;;;;;;;5020756;28;19936;-78
2022/10/16 12:55:52;;;;;;;;;;;;;;;;;;5018840;28;19973;-77
2022/10/16 12:58:35;;;;;;;;;;;;;;;;;;5018513;28;20012;-79
2022/10/16 13:01:08;;;;;;;;;;;;;;;;;;5020386;28;19963;-79
2022/10/16 13:04:00;;;;;;;;;;;;;;;;;;5032131;28;19984;-79
2022/10/16 13:06:31;;;;;;;;;;;;;;;;;;5037952;28;19948;-79
2022/10/16 13:09:03;;;;;;;;;;;;;;;;;;5038322;28;19977;-79
2022/10/16 13:11:36;;;;;;;;;;;;;;;;;;5038224;28;19979;-79
2022/10/16 13:14:16;;;;;;;;;;;;;;;;;;5036387;28;20403;-79
2022/10/16 13:16:49;;;;;;;;;;;;;;;;;;5037103;28;19932;-77
2022/10/16 13:19:19;;;;;;;;;;;;;;;;;;5048588;28;19940;-76
2022/10/16 13:21:51;;;;;;;;;;;;;;;;;;5057287;28;19914;-76
2022/10/16 13:24:24;;;;;;;;;;;;;;;;;;5054414;28;19925;-76
2022/10/16 13:26:54;;;;;;;;;;;;;;;;;;5029062;28;19948;-78
2022/10/16 13:29:21;;;;;;;;;;;;;;;;;;5015982;28;20019;-76
2022/10/16 13:31:47;;;;;;;;;;;;;;;;;;5016015;28;19925;-77
2022/10/16 13:34:16;;;;;;;;;;;;;;;;;;5018323;28;19980;-77
2022/10/16 13:36:46;;;;;;;;;;;;;;;;;;5015762;28;20379;-77
2022/10/16 13:39:14;;;;;;;;;;;;;;;;;;5016703;28;19969;-77
2022/10/16 13:41:41;;;;;;;;;;;;;;;;;;5017937;28;19994;-75
2022/10/16 13:44:14;;;;;;;;;;;;;;;;;;5016573;28;20392;-79
2022/10/16 13:46:40;;;;;;;;;;;;;;;;;;5016547;28;19972;-79
2022/10/16 13:49:12;;;;;;;;;;;;;;;;;;5019932;28;20047;-78
2022/10/16 13:51:38;;;;;;;;;;;;;;;;;;5020460;28;19968;-77
2022/10/16 13:54:05;;;;;;;;;;;;;;;;;;5021001;28;20028;-78
2022/10/16 13:56:33;;;;;;;;;;;;;;;;;;5018940;28;19961;-77
2022/10/16 13:59:00;;;;;;;;;;;;;;;;;;5018807;28;19933;-77
2022/10/16 14:01:29;;;;;;;;;;;;;;;;;;5018798;28;19925;-77
2022/10/16 14:04:01;;;;;;;;;;;;;;;;;;5034975;28;19996;-77
2022/10/16 14:06:28;;;;;;;;;;;;;;;;;;5040911;28;19931;-77
2022/10/16 14:08:56;;;;;;;;;;;;;;;;;;5037502;28;19977;-79
2022/10/16 14:11:24;;;;;;;;;;;;;;;;;;5038078;28;19983;-78
2022/10/16 14:13:50;;;;;;;;;;;;;;;;;;5039715;28;20015;-77
2022/10/16 14:16:18;;;;;;;;;;;;;;;;;;5039820;28;19971;-78
2022/10/16 14:18:50;;;;;;;;;;;;;;;;;;5041787;28;19929;-78
2022/10/16 14:21:17;;;;;;;;;;;;;;;;;;5019932;28;20384;-82
2022/10/16 14:23:44;;;;;;;;;;;;;;;;;;5018034;28;20347;-77
2022/10/16 14:26:14;;;;;;;;;;;;;;;;;;5018546;28;19932;-77
2022/10/16 14:28:41;;;;;;;;;;;;;;;;;;5018229;28;19968;-78
2022/10/16 14:31:24;;;;;;;;;;;;;;;;;;5019212;28;20056;-77
2022/10/16 14:33:52;;;;;;;;;;;;;;;;;;5018714;28;20016;-79
2022/10/16 14:36:20;;;;;;;;;;;;;;;;;;5018213;28;20024;-78
2022/10/16 14:38:50;;;;;;;;;;;;;;;;;;5017372;28;19953;-78
2022/10/16 14:41:21;;;;;;;;;;;;;;;;;;5018303;28;19925;-79
2022/10/16 14:43:50;;;;;;;;;;;;;;;;;;5018094;28;20277;-78
2022/10/16 14:46:18;;;;;;;;;;;;;;;;;;5018157;28;19926;-78
2022/10/16 14:48:46;;;;;;;;;;;;;;;;;;5018194;28;19929;-78
2022/10/16 14:51:15;;;;;;;;;;;;;;;;;;5018528;28;20024;-78
2022/10/16 14:53:41;;;;;;;;;;;;;;;;;;5019066;28;19932;-77
2022/10/16 14:56:08;;;;;;;;;;;;;;;;;;5018278;28;19963;-79
2022/10/16 14:58:35;;;;;;;;;;;;;;;;;;5018167;28;20016;-79
2022/10/16 15:01:02;;;;;;;;;;;;;;;;;;5018397;28;19992;-79
2022/10/16 15:03:28;;;;;;;;;;;;;;;;;;5031076;28;19959;-79
2022/10/16 15:05:55;;;;;;;;;;;;;;;;;;5038866;28;20380;-79
2022/10/16 15:08:22;;;;;;;;;;;;;;;;;;5037709;28;19965;-79
2022/10/16 15:10:49;;;;;;;;;;;;;;;;;;5037849;28;19933;-78
2022/10/16 15:13:15;;;;;;;;;;;;;;;;;;5038864;28;19971;-78
2022/10/16 15:15:43;;;;;;;;;;;;;;;;;;5039192;28;20012;-77
2022/10/16 15:18:10;;;;;;;;;;;;;;;;;;5038499;28;20007;-78
2022/10/16 15:20:37;;;;;;;;;;;;;;;;;;5038502;28;19952;-78
2022/10/16 15:23:04;;;;;;;;;;;;;;;;;;5037620;28;19964;-76
2022/10/16 15:25:33;;;;;;;;;;;;;;;;;;5041932;28;19996;-76
2022/10/16 15:28:01;;;;;;;;;;;;;;;;;;5044643;28;20020;-76
2022/10/16 15:30:27;;;;;;;;;;;;;;;;;;5045939;28;19978;-76
2022/10/16 15:32:54;;;;;;;;;;;;;;;;;;5045180;28;19968;-76
2022/10/16 15:35:20;;;;;;;;;;;;;;;;;;5043112;28;19975;-78
2022/10/16 15:37:47;;;;;;;;;;;;;;;;;;5037981;28;19964;-79
2022/10/16 15:40:13;;;;;;;;;;;;;;;;;;5038119;28;19968;-77
2022/10/16 15:42:41;;;;;;;;;;;;;;;;;;5038561;28;20011;-77
2022/10/16 15:45:09;;;;;;;;;;;;;;;;;;5038082;28;19971;-77
2022/10/16 15:47:35;;;;;;;;;;;;;;;;;;5037607;28;19975;-77
2022/10/16 15:50:02;;;;;;;;;;;;;;;;;;5037976;28;20344;-77
2022/10/16 15:52:28;;;;;;;;;;;;;;;;;;5038121;28;19952;-78
2022/10/16 15:54:55;;;;;;;;;;;;;;;;;;5037402;28;20303;-78
2022/10/16 15:57:21;;;;;;;;;;;;;;;;;;5037088;28;19992;-77
2022/10/16 15:59:49;;;;;;;;;;;;;;;;;;5038303;28;19956;-78
2022/10/16 16:02:16;;;;;;;;;;;;;;;;;;5035175;28;19925;-78
2022/10/16 16:04:42;;;;;;;;;;;;;;;;;;5018373;28;19932;-77
2022/10/16 16:07:09;;;;;;;;;;;;;;;;;;5017576;28;19930;-77
2022/10/16 16:09:36;;;;;;;;;;;;;;;;;;5017734;28;19926;-78
2022/10/16 16:12:02;;;;;;;;;;;;;;;;;;5017229;28;19996;-77
2022/10/16 16:14:29;;;;;;;;;;;;;;;;;;5017590;28;19957;-78
2022/10/16 16:16:57;;;;;;;;;;;;;;;;;;5017635;28;19976;-78
2022/10/16 16:19:23;;;;;;;;;;;;;;;;;;5017732;28;19973;-78
2022/10/16 16:21:50;;;;;;;;;;;;;;;;;;5017970;28;20016;-78
2022/10/16 16:24:16;;;;;;;;;;;;;;;;;;5017951;28;19988;-78
2022/10/16 16:26:43;;;;;;;;;;;;;;;;;;5017067;28;19957;-78
2022/10/16 16:29:10;;;;;;;;;;;;;;;;;;5017388;28;19925;-77
2022/10/16 16:31:37;;;;;;;;;;;;;;;;;;5017762;28;19931;-78
2022/10/16 16:34:04;;;;;;;;;;;;;;;;;;5017381;28;19925;-76
2022/10/16 16:36:31;;;;;;;;;;;;;;;;;;5017935;28;20008;-78
2022/10/16 16:38:58;;;;;;;;;;;;;;;;;;5017187;28;20020;-78
2022/10/16 16:41:25;;;;;;;;;;;;;;;;;;5016725;28;20012;-78
2022/10/16 16:43:52;;;;;;;;;;;;;;;;;;5016875;28;19932;-76
2022/10/16 16:46:19;;;;;;;;;;;;;;;;;;5017077;28;19996;-78
2022/10/16 16:48:46;;;;;;;;;;;;;;;;;;5016960;28;20032;-78
2022/10/16 16:51:16;;;;;;;;;;;;;;;;;;5017167;28;19925;-78
2022/10/16 16:53:42;;;;;;;;;;;;;;;;;;5017436;28;19976;-76